Time;durP1;ratioP1;P1;durP2;ratioP2;P2;SDS_P1;SDS_P2;PMS_P1;PMS_P2;Temp;Humidity;BMP_temperature;BMP_pressure;BME280_temperature;BME280_humidity;BME280_pressure;Samples;Min_cycle;Max_cycle;Signal;HPM_P1;HPM_P2
2022/09/17 00:00:32;;;;;;;8.80;2.10;;;;;;;17.14;76.55;93164.53;5146889;27;20026;-72
2022/09/17 00:02:57;;;;;;;6.68;3.10;;;;;;;17.13;76.67;93162.97;5146667;27;20058;-73
2022/09/17 00:05:24;;;;;;;9.52;2.67;;;;;;;17.11;76.39;93149.13;5146208;27;20015;-73
2022/09/17 00:07:50;;;;;;;11.10;2.55;;;;;;;17.14;76.29;93145.69;5146537;27;20315;-73
2022/09/17 00:10:18;;;;;;;11.27;2.67;;;;;;;17.11;77.01;93140.28;5146916;27;20084;-73
2022/09/17 00:12:44;;;;;;;20.70;2.63;;;;;;;17.14;77.05;93144.94;5146744;27;20019;-73
2022/09/17 00:15:09;;;;;;;7.53;2.55;;;;;;;17.15;76.82;93139.16;5146323;27;20027;-72
2022/09/17 00:17:35;;;;;;;7.57;2.55;;;;;;;17.17;76.74;93125.31;5146458;27;20026;-72
2022/09/17 00:20:01;;;;;;;3.58;2.05;;;;;;;17.20;76.49;93119.19;5146624;27;20053;-73
2022/09/17 00:22:27;;;;;;;9.65;2.15;;;;;;;17.20;75.95;93113.81;5146243;27;20209;-73
2022/09/17 00:24:52;;;;;;;6.20;1.83;;;;;;;17.23;76.30;93113.06;5146401;27;20087;-72
2022/09/17 00:27:17;;;;;;;7.40;2.17;;;;;;;17.21;76.04;93109.97;5146669;27;20122;-72
2022/09/17 00:29:43;;;;;;;7.70;2.22;;;;;;;17.20;76.29;93113.81;5146288;27;20052;-72
2022/09/17 00:32:09;;;;;;;10.32;2.40;;;;;;;17.20;75.96;93103.03;5146205;27;20047;-72
2022/09/17 00:34:34;;;;;;;13.23;2.08;;;;;;;17.22;76.25;93112.28;5146229;27;20310;-72
2022/09/17 00:37:00;;;;;;;8.88;2.47;;;;;;;17.20;76.32;93119.97;5146118;27;20026;-71
2022/09/17 00:39:25;;;;;;;5.43;2.10;;;;;;;17.19;76.41;93139.19;5146003;27;20094;-71
2022/09/17 00:41:51;;;;;;;7.43;2.90;;;;;;;17.17;76.07;93130.69;5146021;27;20027;-71
2022/09/17 00:44:41;;;;;;;7.20;3.42;;;;;;;17.17;76.04;93130.69;5146176;27;20069;-71
2022/09/17 00:47:43;;;;;;;9.35;2.55;;;;;;;17.25;76.34;93151.94;5145913;27;20313;-72
2022/09/17 00:50:08;;;;;;;8.27;2.97;;;;;;;17.25;76.82;93140.38;5145891;27;20035;-71
2022/09/17 00:52:58;;;;;;;12.65;3.78;;;;;;;17.25;76.51;93133.06;5145557;27;20030;-71
2022/09/17 00:55:29;;;;;;;10.82;3.13;;;;;;;17.27;76.99;93130.03;5145718;27;20015;-72
2022/09/17 00:57:58;;;;;;;8.23;3.85;;;;;;;17.33;76.71;93152.75;5145601;27;20097;-74
2022/09/17 01:00:25;;;;;;;8.75;3.58;;;;;;;17.24;76.74;93157.72;5145549;27;20031;-73
2022/09/17 01:02:52;;;;;;;15.23;4.03;;;;;;;17.24;77.30;93161.16;5145642;27;20263;-74
2022/09/17 01:05:23;;;;;;;8.93;3.60;;;;;;;17.17;77.35;93155.69;5145445;27;20019;-72
2022/09/17 01:08:07;;;;;;;9.15;3.38;;;;;;;17.12;77.85;93136.44;5145718;27;20023;-72
2022/09/17 01:10:51;;;;;;;12.13;3.83;;;;;;;17.16;77.89;93150.72;5145192;27;20023;-72
2022/09/17 01:13:45;;;;;;;11.23;3.97;;;;;;;17.05;77.75;93124.44;5145585;27;20054;-72
2022/09/17 01:16:14;;;;;;;8.38;3.42;;;;;;;16.86;79.09;93140.81;5130438;27;20038;-72
2022/09/17 01:18:59;;;;;;;12.43;4.50;;;;;;;16.90;78.78;93114.72;5145443;27;20103;-73
2022/09/17 01:21:28;;;;;;;11.55;4.43;;;;;;;16.87;79.53;93123.50;5145262;27;20075;-72
2022/09/17 01:24:21;;;;;;;11.48;5.05;;;;;;;16.89;79.42;93117.75;5145086;27;20027;-73
2022/09/17 01:27:17;;;;;;;12.05;5.30;;;;;;;16.90;79.73;93114.72;5145478;27;20030;-73
2022/09/17 01:30:13;;;;;;;14.07;4.55;;;;;;;16.90;79.92;93117.41;5145242;27;20029;-73
2022/09/17 01:32:53;;;;;;;11.70;4.75;;;;;;;16.87;79.77;93123.50;5145224;27;20321;-73
2022/09/17 01:35:22;;;;;;;11.95;4.93;;;;;;;16.89;80.25;93129.28;5145277;27;20179;-73
2022/09/17 01:38:00;;;;;;;16.13;6.40;;;;;;;16.80;80.27;93128.81;5145198;27;20022;-72
2022/09/17 01:40:42;;;;;;;18.10;6.38;;;;;;;16.80;80.94;93128.81;5145049;27;20019;-72
2022/09/17 01:43:20;;;;;;;13.45;7.10;;;;;;;16.90;80.88;93117.41;5145095;27;20026;-72
2022/09/17 01:45:50;;;;;;;16.45;6.70;;;;;;;16.88;81.06;93106.22;5145050;27;20099;-72
2022/09/17 01:48:24;;;;;;;11.40;6.05;;;;;;;16.91;80.92;93102.78;5144941;27;20027;-72
2022/09/17 01:51:03;;;;;;;13.27;7.00;;;;;;;16.97;80.83;93052.84;5144812;27;20068;-73
2022/09/17 01:53:43;;;;;;;15.98;6.72;;;;;;;17.00;81.01;93041.34;5144813;27;20026;-73
2022/09/17 01:56:13;;;;;;;16.30;6.57;;;;;;;17.05;80.93;93043.69;5144556;27;20086;-72
2022/09/17 01:58:49;;;;;;;21.48;6.20;;;;;;;16.90;81.65;93085.09;5144712;27;20021;-72
2022/09/17 02:01:19;;;;;;;14.25;6.43;;;;;;;16.86;82.46;93135.44;5144646;27;20234;-72
2022/09/17 02:04:01;;;;;;;13.57;6.53;;;;;;;16.59;84.07;93140.13;5144477;27;20225;-72
2022/09/17 02:06:36;;;;;;;14.43;6.07;;;;;;;16.51;84.73;93115.06;5144490;27;20234;-72
2022/09/17 02:09:11;;;;;;;10.43;5.55;;;;;;;16.27;86.14;93118.25;5144408;27;20111;-72
2022/09/17 02:11:40;;;;;;;17.38;6.40;;;;;;;16.19;86.88;93091.28;5144258;27;20203;-72
2022/09/17 02:14:12;;;;;;;17.23;6.97;;;;;;;16.19;86.96;93060.94;5144434;27;20054;-72
2022/09/17 02:16:45;;;;;;;13.80;6.30;;;;;;;16.19;86.39;93029.44;5144190;27;20023;-72
2022/09/17 02:19:30;;;;;;;10.10;5.57;;;;;;;16.29;86.64;92985.00;5144228;27;20019;-72
2022/09/17 02:22:05;;;;;;;18.35;4.72;;;;;;;16.40;84.08;92961.63;5144055;27;20011;-72
2022/09/17 02:25:09;;;;;;;8.25;2.47;;;;;;;16.91;71.63;92946.69;5144063;27;20019;-72
2022/09/17 02:27:58;;;;;;;17.27;3.10;;;;;;;17.33;75.47;92969.63;5143109;27;20047;-72
2022/09/17 02:30:24;;;;;;;15.02;3.03;;;;;;;17.72;69.61;92949.41;5144116;27;20205;-72
2022/09/17 02:32:50;;;;;;;6.53;2.50;;;;;;;18.01;70.73;92955.66;5144113;27;20015;-72
2022/09/17 02:35:16;;;;;;;9.52;2.45;;;;;;;18.27;66.17;92924.13;5144003;27;20019;-72
2022/09/17 02:37:42;;;;;;;5.82;2.72;;;;;;;18.40;70.67;92968.47;5143844;27;20054;-73
2022/09/17 02:40:11;;;;;;;14.77;4.70;;;;;;;18.24;73.21;92988.47;5143787;27;20034;-72
2022/09/17 02:42:51;;;;;;;10.40;3.78;;;;;;;18.00;75.93;93032.31;5143797;27;20023;-72
2022/09/17 02:45:56;;;;;;;8.00;4.10;;;;;;;17.52;78.83;93040.53;5143847;27;20034;-73
2022/09/17 02:48:49;;;;;;;23.17;6.88;;;;;;;17.26;80.18;93031.53;5143772;27;20055;-73
2022/09/17 02:51:46;;;;;;;9.23;4.10;;;;;;;16.93;82.33;93025.13;5143544;27;20030;-72
2022/09/17 02:54:25;;;;;;;13.15;6.13;;;;;;;16.79;82.59;93006.16;5143756;28;20033;-72
2022/09/17 02:57:12;;;;;;;14.18;5.45;;;;;;;16.61;83.74;93009.47;5143623;27;20338;-72
2022/09/17 03:00:14;;;;;;;11.25;5.00;;;;;;;16.60;83.76;92994.47;5143581;28;20084;-72
2022/09/17 03:03:05;;;;;;;14.48;5.25;;;;;;;16.51;84.25;92988.66;5118001;28;20213;-72
2022/09/17 03:05:31;;;;;;;16.17;5.80;;;;;;;16.61;84.34;92966.44;5143743;27;20310;-73
2022/09/17 03:07:59;;;;;;;13.68;4.60;;;;;;;16.71;83.67;92975.75;5143238;28;20031;-72
2022/09/17 03:10:29;;;;;;;13.00;4.18;;;;;;;16.79;83.61;92957.72;5143329;28;20025;-73
2022/09/17 03:12:55;;;;;;;15.48;4.88;;;;;;;16.85;83.32;92948.19;5143385;28;20020;-73
2022/09/17 03:15:20;;;;;;;10.95;4.75;;;;;;;16.93;82.67;92957.06;5143772;28;20030;-73
2022/09/17 03:17:46;;;;;;;11.52;4.78;;;;;;;16.97;81.99;92966.72;5143441;28;20019;-73
2022/09/17 03:20:14;;;;;;;10.05;4.60;;;;;;;16.89;82.28;92981.25;5143507;28;20053;-73
2022/09/17 03:22:40;;;;;;;12.43;4.78;;;;;;;16.79;82.88;93009.63;5143470;27;20022;-73
2022/09/17 03:25:06;;;;;;;16.70;4.93;;;;;;;16.64;83.47;92997.19;5143430;27;20019;-72
2022/09/17 03:27:31;;;;;;;13.40;5.45;;;;;;;16.50;84.30;92997.84;5143261;28;20026;-73
2022/09/17 03:29:58;;;;;;;8.57;4.72;;;;;;;16.47;84.73;92998.59;5143191;28;20076;-73
2022/09/17 03:32:23;;;;;;;11.40;4.75;;;;;;;16.45;84.37;93000.88;5143184;28;20088;-72
2022/09/17 03:34:49;;;;;;;11.40;3.50;;;;;;;16.44;82.30;92975.13;5143409;28;20018;-72
2022/09/17 03:37:14;;;;;;;7.10;3.03;;;;;;;16.48;82.57;92977.84;5143172;28;20038;-72
2022/09/17 03:39:40;;;;;;;4.22;2.67;;;;;;;16.57;82.29;92967.56;5144776;27;20057;-73
2022/09/17 03:42:05;;;;;;;4.80;2.53;;;;;;;16.69;81.45;92950.34;5147177;27;20019;-73
2022/09/17 03:44:31;;;;;;;10.90;2.58;;;;;;;16.80;81.22;92959.28;5146916;27;20255;-73
2022/09/17 03:46:56;;;;;;;8.05;2.90;;;;;;;16.90;80.53;92953.22;5147162;27;20042;-73
2022/09/17 03:49:22;;;;;;;11.38;2.90;;;;;;;17.00;80.43;92941.75;5147091;27;20397;-72
2022/09/17 03:51:48;;;;;;;8.73;2.40;;;;;;;17.11;79.35;92954.50;5146932;27;20030;-72
2022/09/17 03:54:16;;;;;;;5.50;2.22;;;;;;;17.18;79.04;92938.41;5146756;27;20280;-72
2022/09/17 03:56:42;;;;;;;13.20;2.47;;;;;;;17.23;79.27;92932.63;5146959;27;20131;-72
2022/09/17 03:59:08;;;;;;;8.68;2.28;;;;;;;17.27;77.25;92956.91;5146673;27;20027;-73
2022/09/17 04:01:35;;;;;;;6.30;1.83;;;;;;;17.30;76.88;92956.13;5146799;27;20015;-72
2022/09/17 04:04:01;;;;;;;7.25;2.60;;;;;;;17.30;77.00;92962.31;5146661;27;20046;-72
2022/09/17 04:06:26;;;;;;;8.45;2.20;;;;;;;17.35;77.55;92967.31;5146456;27;20018;-72
2022/09/17 04:08:52;;;;;;;6.65;2.58;;;;;;;17.45;77.32;92982.00;5146576;27;20356;-72
2022/09/17 04:11:17;;;;;;;8.63;2.60;;;;;;;17.39;77.67;92976.19;5146707;27;20030;-72
2022/09/17 04:13:43;;;;;;;6.63;2.35;;;;;;;17.33;77.46;92977.69;5146358;27;20027;-72
2022/09/17 04:16:08;;;;;;;7.80;2.13;;;;;;;17.34;77.83;92991.94;5146137;27;20023;-72
2022/09/17 04:18:34;;;;;;;9.07;2.25;;;;;;;17.34;78.28;93002.72;5146423;27;20614;-72
2022/09/17 04:20:59;;;;;;;9.27;2.20;;;;;;;17.29;78.45;93013.84;5146262;27;20068;-73
2022/09/17 04:23:25;;;;;;;7.47;2.20;;;;;;;17.33;78.24;93045.03;5146305;27;20019;-72
2022/09/17 04:25:50;;;;;;;9.00;2.08;;;;;;;17.36;77.91;93043.50;5146322;27;20094;-73
2022/09/17 04:28:16;;;;;;;8.95;2.38;;;;;;;17.40;78.87;93069.34;5145924;27;20030;-73
2022/09/17 04:30:44;;;;;;;14.13;2.78;;;;;;;17.43;78.80;93083.97;5146147;27;20018;-72
2022/09/17 04:33:10;;;;;;;6.90;2.00;;;;;;;17.44;79.08;93085.50;5146026;27;20190;-72
2022/09/17 04:35:35;;;;;;;8.55;2.42;;;;;;;17.42;79.35;93085.91;5145902;27;20027;-72
2022/09/17 04:38:01;;;;;;;15.68;3.92;;;;;;;17.41;78.85;93083.56;5145922;27;20020;-72
2022/09/17 04:40:29;;;;;;;5.95;2.50;;;;;;;17.31;79.65;93084.28;5145875;27;20086;-72
2022/09/17 04:43:01;;;;;;;9.35;3.38;;;;;;;17.15;80.44;93098.00;5145999;27;20235;-72
2022/09/17 04:45:28;;;;;;;7.90;2.42;;;;;;;17.13;81.28;93086.81;5145777;27;20034;-72
2022/09/17 04:47:54;;;;;;;8.57;2.78;;;;;;;17.09;81.47;93083.31;5145636;27;20033;-73
2022/09/17 04:50:21;;;;;;;6.45;2.78;;;;;;;17.11;81.61;93095.25;5145298;27;20020;-73
2022/09/17 04:52:47;;;;;;;7.82;3.13;;;;;;;17.15;82.12;93111.47;5145154;27;20042;-72
2022/09/17 04:55:14;;;;;;;15.20;3.70;;;;;;;17.15;82.59;93130.31;5145587;27;20068;-73
2022/09/17 04:57:48;;;;;;;9.30;4.03;;;;;;;17.01;83.94;93141.72;5145594;27;20064;-73
2022/09/17 05:00:14;;;;;;;10.88;3.58;;;;;;;17.02;83.93;93121.75;5145529;27;20296;-73
2022/09/17 05:02:41;;;;;;;14.68;4.20;;;;;;;16.99;82.85;93112.47;5145651;27;20015;-74
2022/09/17 05:05:07;;;;;;;7.38;2.60;;;;;;;17.10;82.21;93101.03;5145577;27;20224;-72
2022/09/17 05:07:33;;;;;;;14.82;2.03;;;;;;;17.39;80.04;93092.00;5145243;27;20177;-73
2022/09/17 05:09:58;;;;;;;13.43;2.42;;;;;;;17.66;78.96;93081.03;5145212;27;20107;-72
2022/09/17 05:12:24;;;;;;;11.75;1.90;;;;;;;17.84;78.04;93083.84;5145254;27;20039;-73
2022/09/17 05:14:49;;;;;;;7.07;1.95;;;;;;;17.99;76.73;93093.56;5145299;27;20030;-73
2022/09/17 05:17:15;;;;;;;7.20;2.17;;;;;;;18.09;76.99;93092.03;5145373;27;20022;-73
2022/09/17 05:19:40;;;;;;;12.60;3.00;;;;;;;18.16;78.07;93097.47;5126764;27;20225;-73
2022/09/17 05:22:06;;;;;;;9.50;3.17;;;;;;;18.20;78.26;93086.72;5145032;27;20015;-72
2022/09/17 05:24:32;;;;;;;9.48;3.72;;;;;;;18.16;78.46;93084.00;5144997;27;20076;-73
2022/09/17 05:26:57;;;;;;;7.78;3.33;;;;;;;18.14;78.80;93078.22;5144861;27;20366;-73
2022/09/17 05:29:23;;;;;;;16.95;5.22;;;;;;;18.13;78.55;93065.88;5145119;27;20023;-73
2022/09/17 05:31:48;;;;;;;10.65;3.30;;;;;;;18.15;78.19;93077.03;5145269;27;20064;-71
2022/09/17 05:34:14;;;;;;;16.33;3.88;;;;;;;18.16;78.15;93075.13;5145044;27;20027;-73
2022/09/17 05:36:39;;;;;;;6.15;2.47;;;;;;;18.15;77.44;93085.13;5144773;27;20339;-72
2022/09/17 05:39:05;;;;;;;13.52;3.17;;;;;;;18.16;75.42;93091.31;5144651;27;20019;-72
2022/09/17 05:41:30;;;;;;;9.60;1.92;;;;;;;18.22;70.24;93082.47;5144676;27;20023;-72
2022/09/17 05:43:56;;;;;;;5.78;1.40;;;;;;;18.41;68.72;93075.22;5144608;27;20030;-85
2022/09/17 05:46:22;;;;;;;9.68;1.23;;;;;;;18.51;67.96;93085.25;5145040;27;20037;-81
2022/09/17 05:48:47;;;;;;;5.10;1.10;;;;;;;18.68;66.52;93088.38;5145250;27;20151;-82
2022/09/17 05:51:13;;;;;;;6.63;1.00;;;;;;;18.73;65.89;93096.88;5144741;27;20098;-82
2022/09/17 05:53:38;;;;;;;3.90;0.85;;;;;;;18.87;65.06;93104.25;5145287;27;20015;-83
2022/09/17 05:56:04;;;;;;;5.38;0.98;;;;;;;18.91;64.49;93096.94;5126570;27;20022;-83
2022/09/17 05:58:30;;;;;;;3.50;0.90;;;;;;;18.99;63.74;93106.59;5144698;27;20022;-85
2022/09/17 06:00:59;;;;;;;4.50;1.05;;;;;;;19.08;63.92;93092.69;5126576;27;20015;-84
2022/09/17 06:03:25;;;;;;;1.90;1.05;;;;;;;19.15;63.57;93105.44;5144330;27;20288;-85
2022/09/17 06:05:53;;;;;;;4.65;1.40;;;;;;;19.27;64.70;93101.59;5144957;27;20019;-85
2022/09/17 06:08:18;;;;;;;5.18;1.17;;;;;;;19.34;64.61;93101.59;5144699;27;20039;-81
2022/09/17 06:10:44;;;;;;;5.72;1.80;;;;;;;19.47;65.34;93100.03;5144396;27;20023;-82
2022/09/17 06:13:12;;;;;;;15.38;1.42;;;;;;;19.52;63.70;93090.75;5144306;27;20331;-81
2022/09/17 06:15:37;;;;;;;3.70;1.13;;;;;;;19.56;62.78;93092.31;5144666;27;20022;-80
2022/09/17 06:18:03;;;;;;;5.07;0.90;;;;;;;19.58;61.61;93105.41;5144271;27;20056;-81
2022/09/17 06:20:31;;;;;;;4.90;1.00;;;;;;;19.48;62.57;93096.19;5144116;27;20064;-81
2022/09/17 06:22:57;;;;;;;4.43;0.80;;;;;;;19.38;62.75;93097.72;5144204;27;20019;-82
2022/09/17 06:25:23;;;;;;;2.63;0.80;;;;;;;19.33;60.99;93121.66;5144284;27;20325;-82
2022/09/17 06:27:49;;;;;;;13.00;3.13;;;;;;;19.15;72.31;93164.84;5144110;27;20029;-81
2022/09/17 06:30:14;;;;;;;10.50;2.75;;;;;;;18.90;75.76;93191.81;5143816;27;20015;-83
2022/09/17 06:32:39;;;;;;;10.85;3.20;;;;;;;18.64;76.55;93183.63;5144114;27;20019;-85
2022/09/17 06:35:06;;;;;;;18.98;3.85;;;;;;;18.59;76.77;93192.06;5125671;28;20026;-84
2022/09/17 06:37:31;;;;;;;11.73;3.75;;;;;;;18.54;77.65;93202.44;5143873;27;20356;-84
2022/09/17 06:39:58;;;;;;;12.25;3.13;;;;;;;18.39;76.94;93210.47;5144051;27;20019;-84
2022/09/17 06:42:36;;;;;;;7.30;2.85;;;;;;;18.37;77.38;93193.91;5144001;27;20030;-86
2022/09/17 06:45:02;;;;;;;16.48;2.53;;;;;;;18.40;77.18;93195.09;5143962;27;20336;-83
2022/09/17 06:47:28;;;;;;;7.10;2.00;;;;;;;18.39;75.36;93180.81;5143604;27;20018;-84
2022/09/17 06:49:55;;;;;;;11.75;2.03;;;;;;;18.38;74.80;93162.31;5143644;27;20026;-80
2022/09/17 06:52:21;;;;;;;9.60;2.35;;;;;;;18.45;75.42;93156.94;5143936;27;20309;-81
2022/09/17 06:54:46;;;;;;;11.60;3.17;;;;;;;18.56;76.17;93155.06;5143563;27;20067;-84
2022/09/17 06:57:12;;;;;;;10.65;4.15;;;;;;;18.65;78.01;93160.84;5143599;27;20026;-85
2022/09/17 06:59:37;;;;;;;12.90;5.97;;;;;;;18.74;78.38;93152.41;5143981;28;20087;-85
2022/09/17 07:02:03;;;;;;;23.33;7.13;;;;;;;18.84;78.58;93145.50;5125617;28;20016;-83
2022/09/17 07:04:31;;;;;;;14.20;5.93;;;;;;;18.91;78.00;93126.66;5143827;28;20032;-82
2022/09/17 07:06:56;;;;;;;12.27;4.53;;;;;;;19.03;77.55;93098.47;5143813;27;20121;-83
2022/09/17 07:09:22;;;;;;;18.70;4.85;;;;;;;19.19;77.01;93090.00;5143683;27;20245;-83
2022/09/17 07:11:47;;;;;;;9.23;4.22;;;;;;;19.34;76.36;93082.69;5143142;28;20321;-81
2022/09/17 07:14:13;;;;;;;17.35;5.53;;;;;;;19.48;75.75;93079.16;5144466;27;20023;-81
2022/09/17 07:16:38;;;;;;;13.32;4.93;;;;;;;19.63;75.28;93086.88;5147773;27;20020;-82
2022/09/17 07:19:07;;;;;;;15.40;5.53;;;;;;;19.79;75.03;93048.66;5147376;27;20030;-84
2022/09/17 07:21:32;;;;;;;12.15;4.05;;;;;;;19.98;74.18;93052.81;5147597;27;20060;-83
2022/09/17 07:23:58;;;;;;;20.88;5.70;;;;;;;20.16;73.27;93065.53;5147493;27;20074;-82
2022/09/17 07:26:24;;;;;;;20.38;4.45;;;;;;;20.36;73.00;93087.47;5147439;27;20025;-82
2022/09/17 07:28:49;;;;;;;9.88;4.32;;;;;;;20.52;71.23;93078.91;5147776;27;20217;-81
2022/09/17 07:31:15;;;;;;;16.13;3.55;;;;;;;20.68;70.36;93070.31;5147221;27;20030;-80
2022/09/17 07:33:41;;;;;;;11.13;3.72;;;;;;;20.76;69.81;93060.97;5147166;27;20019;-81
2022/09/17 07:36:09;;;;;;;8.25;2.88;;;;;;;20.84;68.20;93071.38;5128881;27;20019;-81
2022/09/17 07:38:35;;;;;;;10.25;2.97;;;;;;;20.96;67.43;93069.34;5147339;27;20102;-80
2022/09/17 07:41:02;;;;;;;13.82;3.80;;;;;;;21.06;66.80;93073.94;5147332;27;20310;-81
2022/09/17 07:43:32;;;;;;;10.82;3.22;;;;;;;21.19;66.34;93057.97;5147354;27;20038;-82
2022/09/17 07:45:59;;;;;;;6.60;3.05;;;;;;;21.28;65.77;93068.34;5147344;27;20030;-81
2022/09/17 07:48:25;;;;;;;18.15;3.88;;;;;;;21.35;65.43;93058.22;5147263;27;20086;-81
2022/09/17 07:50:51;;;;;;;9.63;2.88;;;;;;;21.48;65.23;93066.66;5147138;27;20019;-81
2022/09/17 07:53:17;;;;;;;13.07;4.07;;;;;;;21.57;64.56;93075.06;5147154;27;20026;-81
2022/09/17 07:55:53;;;;;;;12.13;3.33;;;;;;;21.73;64.58;93071.06;5128447;27;20321;-81
2022/09/17 07:58:20;;;;;;;7.43;2.72;;;;;;;21.80;63.63;93055.50;5147212;27;20015;-81
2022/09/17 08:00:46;;;;;;;20.52;4.80;;;;;;;21.82;63.56;93069.44;5146904;27;20082;-81
2022/09/17 08:03:12;;;;;;;9.38;3.72;;;;;;;21.92;63.82;93061.56;5146915;27;20026;-81
2022/09/17 08:05:37;;;;;;;15.32;3.78;;;;;;;22.03;63.01;93068.41;5128585;27;20035;-81
2022/09/17 08:08:03;;;;;;;12.45;3.70;;;;;;;22.18;63.09;93069.00;5146564;27;20027;-81
2022/09/17 08:10:28;;;;;;;8.70;4.30;;;;;;;22.32;62.90;93059.97;5147045;27;20037;-81
2022/09/17 08:12:56;;;;;;;13.23;4.35;;;;;;;22.41;62.64;93049.38;5146734;27;20365;-81
2022/09/17 08:15:21;;;;;;;18.90;3.72;;;;;;;22.54;62.31;93046.88;5146790;27;20181;-81
2022/09/17 08:17:47;;;;;;;10.25;3.95;;;;;;;22.62;61.94;93042.91;5146659;27;20023;-81
2022/09/17 08:20:14;;;;;;;16.23;3.90;;;;;;;22.74;62.14;93043.53;5146440;27;20322;-81
2022/09/17 08:22:40;;;;;;;21.77;4.60;;;;;;;22.79;61.58;93051.97;5146486;27;20049;-82
2022/09/17 08:25:07;;;;;;;13.95;3.90;;;;;;;22.93;61.53;93044.78;5146085;27;20034;-82
2022/09/17 08:27:32;;;;;;;13.80;3.42;;;;;;;23.01;60.96;93041.56;5146152;27;20087;-81
2022/09/17 08:29:58;;;;;;;8.98;2.85;;;;;;;23.05;60.64;93046.22;5146220;27;20026;-81
2022/09/17 08:32:24;;;;;;;10.65;2.40;;;;;;;23.13;58.50;93039.47;5146203;27;20270;-81
2022/09/17 08:34:49;;;;;;;11.20;2.40;;;;;;;23.29;58.49;93045.03;5146417;27;20214;-81
2022/09/17 08:37:15;;;;;;;8.48;2.50;;;;;;;23.41;57.61;93046.41;5146283;27;20090;-80
2022/09/17 08:39:43;;;;;;;7.93;2.45;;;;;;;23.43;56.67;93044.78;5146643;27;20019;-79
2022/09/17 08:42:20;;;;;;;12.35;3.13;;;;;;;23.47;55.98;93058.34;5147124;27;20030;-79
2022/09/17 08:44:47;;;;;;;7.78;2.40;;;;;;;23.34;57.12;93057.38;5146450;27;20304;-81
2022/09/17 08:47:25;;;;;;;9.50;3.17;;;;;;;23.31;56.02;93036.47;5146067;27;20022;-80
2022/09/17 08:49:59;;;;;;;8.30;2.83;;;;;;;23.36;56.48;93028.59;5146673;27;20025;-80
2022/09/17 08:52:49;;;;;;;9.65;3.20;;;;;;;23.49;55.21;93041.59;5146231;27;20023;-81
2022/09/17 08:55:30;;;;;;;12.07;2.83;;;;;;;23.42;53.97;93043.25;5146298;27;20244;-80
2022/09/17 08:58:19;;;;;;;7.15;2.15;;;;;;;23.36;55.44;93034.03;5146560;27;20034;-78
2022/09/17 09:00:52;;;;;;;7.07;2.30;;;;;;;23.34;56.50;93035.63;5145898;27;20232;-79
2022/09/17 09:03:46;;;;;;;7.38;2.08;;;;;;;23.06;56.00;93029.50;5145684;27;20038;-79
2022/09/17 09:06:14;;;;;;;14.15;2.00;;;;;;;22.88;57.34;93037.88;5145505;27;20019;-79
2022/09/17 09:09:15;;;;;;;10.85;2.58;;;;;;;22.73;58.03;93047.41;5145314;27;20262;-80
2022/09/17 09:11:42;;;;;;;8.95;2.60;;;;;;;22.61;60.66;93033.22;5131494;27;20325;-79
2022/09/17 09:14:36;;;;;;;10.75;2.63;;;;;;;22.51;61.84;93064.00;5145201;27;20223;-80
2022/09/17 09:17:07;;;;;;;9.30;2.72;;;;;;;22.41;62.19;93059.50;5145144;27;20023;-79
2022/09/17 09:19:42;;;;;;;9.65;3.17;;;;;;;22.37;62.74;93056.06;5126866;27;20045;-80
2022/09/17 09:22:13;;;;;;;9.95;2.03;;;;;;;22.32;62.86;93068.09;5145115;27;20305;-80
2022/09/17 09:24:44;;;;;;;11.13;2.67;;;;;;;22.20;62.85;93072.09;5144662;27;20111;-80
2022/09/17 09:27:35;;;;;;;8.82;2.35;;;;;;;22.09;63.03;93076.88;5145243;27;20216;-79
2022/09/17 09:30:05;;;;;;;10.07;2.55;;;;;;;22.04;64.25;93090.88;5145181;27;20089;-79
2022/09/17 09:32:43;;;;;;;10.85;2.67;;;;;;;21.99;64.81;93086.69;5144874;27;20030;-79
2022/09/17 09:35:17;;;;;;;5.88;2.53;;;;;;;21.92;66.42;93094.91;5144716;27;20313;-79
2022/09/17 09:37:51;;;;;;;12.43;3.35;;;;;;;21.81;67.12;93088.81;5144350;27;20019;-79
2022/09/17 09:40:45;;;;;;;15.57;3.85;;;;;;;21.69;67.02;93114.47;5144899;27;20027;-79
2022/09/17 09:43:27;;;;;;;9.35;3.70;;;;;;;21.60;67.18;93108.78;5108058;27;20394;-79
2022/09/17 09:46:15;;;;;;;9.13;4.90;;;;;;;21.54;68.48;93115.78;5145005;27;20019;-79
2022/09/17 09:48:44;;;;;;;28.50;9.45;;;;;;;21.36;68.52;93126.75;5144392;27;20045;-79
2022/09/17 09:51:29;;;;;;;21.77;5.88;;;;;;;21.14;69.05;93134.25;5144872;27;20015;-81
2022/09/17 09:54:21;;;;;;;13.07;4.40;;;;;;;20.73;70.92;93129.47;5143924;27;20031;-81
2022/09/17 09:56:51;;;;;;;15.80;4.27;;;;;;;20.59;73.09;93144.59;5144625;27;20313;-80
2022/09/17 09:59:18;;;;;;;14.65;3.53;;;;;;;20.44;72.98;93143.13;5126304;27;20288;-80
2022/09/17 10:01:43;;;;;;;8.95;3.67;;;;;;;20.35;72.95;93107.56;5144084;27;20031;-80
2022/09/17 10:04:25;;;;;;;15.52;4.05;;;;;;;20.33;73.92;93096.38;5144272;27;20170;-79
2022/09/17 10:07:04;;;;;;;18.73;4.45;;;;;;;20.30;74.77;93075.53;5126107;27;20101;-80
2022/09/17 10:09:33;;;;;;;16.83;5.30;;;;;;;20.30;75.48;93037.63;5144374;27;20233;-80
2022/09/17 10:11:59;;;;;;;15.40;4.65;;;;;;;20.31;75.76;93020.97;5144028;27;20062;-79
2022/09/17 10:14:28;;;;;;;13.40;4.32;;;;;;;20.29;75.98;93028.72;5144220;27;20203;-79
2022/09/17 10:17:17;;;;;;;19.80;4.55;;;;;;;20.26;75.59;93028.78;5126039;27;20059;-80
2022/09/17 10:20:12;;;;;;;15.20;4.40;;;;;;;20.07;75.35;93011.84;5144056;27;20039;-79
2022/09/17 10:22:45;;;;;;;10.85;3.40;;;;;;;19.91;74.28;92976.38;5125632;27;20019;-79
2022/09/17 10:25:27;;;;;;;8.02;2.90;;;;;;;19.84;73.49;92956.31;5143729;27;20068;-79
2022/09/17 10:27:53;;;;;;;13.18;3.17;;;;;;;19.86;74.55;92968.66;5144151;27;20038;-79
2022/09/17 10:30:19;;;;;;;12.63;3.33;;;;;;;19.79;75.62;92977.59;5125761;27;20328;-80
2022/09/17 10:33:36;;;;;;;9.88;3.22;;;;;;;19.78;76.07;92997.66;5143809;27;20090;-80
2022/09/17 10:36:05;;;;;;;8.10;3.17;;;;;;;19.81;75.87;92992.25;5087702;27;20035;-80
2022/09/17 10:38:38;;;;;;;9.50;3.50;;;;;;;19.76;76.37;92976.44;5144165;27;20089;-80
2022/09/17 10:41:12;;;;;;;11.30;3.50;;;;;;;19.76;76.69;92944.00;5143965;27;20022;-80
2022/09/17 10:43:38;;;;;;;3.75;1.95;;;;;;;19.79;71.52;92943.19;5143908;27;20083;-76
2022/09/17 10:46:04;;;;;;;12.80;2.65;;;;;;;19.74;72.75;92943.63;5143847;27;20043;-81
2022/09/17 10:48:36;;;;;;;10.43;3.03;;;;;;;19.73;75.21;92927.78;5144051;27;20022;-88
2022/09/17 10:51:02;;;;;;;13.60;2.83;;;;;;;19.62;75.59;92925.88;5144280;27;20023;-87
2022/09/17 10:53:27;;;;;;;11.30;2.95;;;;;;;19.68;76.68;92928.16;5143982;27;20271;-83
2022/09/17 10:56:05;;;;;;;18.70;3.92;;;;;;;19.73;75.98;92925.84;5144124;28;20018;-83
2022/09/17 10:58:36;;;;;;;12.38;4.47;;;;;;;19.64;76.90;92937.06;5144225;28;20225;-89
2022/09/17 11:01:01;;;;;;;18.60;6.40;;;;;;;19.58;77.69;92932.44;5144235;27;20072;-88
2022/09/17 11:03:46;;;;;;;7.45;3.50;;;;;;;19.72;77.33;92918.13;5143815;27;20054;-87
2022/09/17 11:06:14;;;;;;;7.82;2.53;;;;;;;19.86;76.08;92936.22;5144441;27;20012;-89
2022/09/17 11:09:14;;;;;;;7.07;3.05;;;;;;;20.00;77.15;92977.47;5143425;28;20035;-87
2022/09/17 11:11:46;;;;;;;12.93;3.10;;;;;;;19.82;77.66;92976.78;5143879;27;20090;-85
2022/09/17 11:14:47;;;;;;;12.35;3.63;;;;;;;19.62;78.30;92979.94;5143954;28;20030;-83
2022/09/17 11:17:34;;;;;;;6.10;3.70;;;;;;;19.55;80.24;92982.66;5112296;28;20365;-84
2022/09/17 11:20:30;;;;;;;12.93;3.13;;;;;;;19.55;80.01;92988.06;5143533;28;20019;-84
2022/09/17 11:23:17;;;;;;;7.45;3.53;;;;;;;19.60;79.59;92965.25;5143830;27;20030;-84
2022/09/17 11:26:12;;;;;;;7.80;3.10;;;;;;;19.75;77.70;93006.56;5143835;27;20019;-84
2022/09/17 11:29:01;;;;;;;7.70;3.25;;;;;;;19.92;76.85;92994.13;5143588;27;20023;-84
2022/09/17 11:31:38;;;;;;;6.38;2.63;;;;;;;19.91;75.28;92993.38;5143496;27;20027;-81
2022/09/17 11:34:29;;;;;;;10.20;3.28;;;;;;;19.92;75.37;92996.84;5143359;27;20023;-80
2022/09/17 11:37:21;;;;;;;11.57;3.13;;;;;;;19.99;75.86;93002.22;5143470;28;20078;-81
2022/09/17 11:39:54;;;;;;;12.23;3.33;;;;;;;20.13;75.73;93007.56;5143467;28;20300;-81
2022/09/17 11:42:30;;;;;;;7.85;2.65;;;;;;;20.18;74.67;92973.91;5143463;28;20605;-81
2022/09/17 11:45:04;;;;;;;6.80;2.83;;;;;;;20.25;74.81;93022.56;5143328;28;20369;-84
2022/09/17 11:47:46;;;;;;;7.13;2.90;;;;;;;20.15;74.79;92937.63;5143311;28;20046;-82
2022/09/17 11:50:27;;;;;;;7.55;2.97;;;;;;;20.03;73.91;92962.41;5124764;28;20107;-81